createdAt,value
2018-05-29T00:00:59.845Z,1009.44
2018-05-29T00:01:59.838Z,1009.44
2018-05-29T00:03:57.755Z,1009.47
2018-05-29T00:04:57.765Z,1009.50
2018-05-29T00:06:53.752Z,1009.48
2018-05-29T00:07:53.752Z,1009.52
2018-05-29T00:09:51.718Z,1009.52
2018-05-29T00:10:51.696Z,1009.53
2018-05-29T00:12:50.204Z,1009.52
2018-05-29T00:13:50.675Z,1009.50
2018-05-29T00:15:47.791Z,1009.51
2018-05-29T00:16:48.319Z,1009.50
2018-05-29T00:18:44.781Z,1009.49
2018-05-29T00:19:43.786Z,1009.47
2018-05-29T00:21:43.237Z,1009.46
2018-05-29T00:22:41.935Z,1009.51
2018-05-29T00:24:40.362Z,1009.50
2018-05-29T00:25:39.862Z,1009.56
2018-05-29T00:27:38.319Z,1009.56
2018-05-29T00:28:35.821Z,1009.55
2018-05-29T00:30:34.795Z,1009.55
2018-05-29T00:31:33.990Z,1009.52
2018-05-29T00:33:32.923Z,1009.48
2018-05-29T00:34:32.921Z,1009.49
2018-05-29T00:36:29.582Z,1009.48
2018-05-29T00:37:29.094Z,1009.47
2018-05-29T00:39:25.022Z,1009.51
2018-05-29T00:40:25.519Z,1009.48
2018-05-29T00:42:23.502Z,1009.51
2018-05-29T00:43:24.003Z,1009.45
2018-05-29T00:45:21.194Z,1009.46
2018-05-29T00:46:21.167Z,1009.47
2018-05-29T00:48:19.119Z,1009.45
2018-05-29T00:49:19.135Z,1009.43
2018-05-29T00:51:15.070Z,1009.39
2018-05-29T00:52:15.029Z,1009.37
2018-05-29T00:54:11.020Z,1009.38
2018-05-29T00:55:11.499Z,1009.36
2018-05-29T00:57:08.016Z,1009.36
2018-05-29T00:58:08.983Z,1009.36
2018-05-29T01:00:12.982Z,1009.32
2018-05-29T01:01:05.967Z,1009.31
2018-05-29T01:03:04.932Z,1009.31
2018-05-29T01:04:04.093Z,1009.26
2018-05-29T01:06:00.063Z,1009.26
2018-05-29T01:07:00.056Z,1009.22
2018-05-29T01:08:56.029Z,1009.20
2018-05-29T01:09:56.012Z,1009.18
2018-05-29T01:11:52.000Z,1009.18
2018-05-29T01:12:51.948Z,1009.19
2018-05-29T01:14:48.408Z,1009.22
2018-05-29T01:15:47.907Z,1009.26
2018-05-29T01:17:45.822Z,1009.27
2018-05-29T01:18:46.394Z,1009.27
2018-05-29T01:20:45.797Z,1009.27
2018-05-29T01:21:43.984Z,1009.28
2018-05-29T01:23:42.947Z,1009.26
2018-05-29T01:24:42.951Z,1009.26
2018-05-29T01:26:39.580Z,1009.23
2018-05-29T01:27:39.568Z,1009.20
2018-05-29T01:29:37.021Z,1009.19
2018-05-29T01:30:38.525Z,1009.21
2018-05-29T01:32:35.970Z,1009.20
2018-05-29T01:33:34.959Z,1009.19
2018-05-29T01:35:32.957Z,1009.23
2018-05-29T01:36:32.911Z,1009.20
2018-05-29T01:38:30.900Z,1009.22
2018-05-29T01:39:31.396Z,1009.20
2018-05-29T01:41:28.834Z,1009.16
2018-05-29T01:42:29.342Z,1009.13
2018-05-29T01:44:25.336Z,1009.13
2018-05-29T01:45:24.819Z,1009.13
2018-05-29T01:47:22.242Z,1009.10
2018-05-29T01:48:20.739Z,1009.12
2018-05-29T01:50:17.222Z,1009.11
2018-05-29T01:51:17.701Z,1009.11
2018-05-29T01:53:14.848Z,1009.13
2018-05-29T01:54:14.898Z,1009.11
2018-05-29T01:56:12.991Z,1009.07
2018-05-29T01:57:12.998Z,1009.07
2018-05-29T01:59:11.947Z,1009.06
2018-05-29T02:00:11.157Z,1009.02
2018-05-29T02:02:07.140Z,1009.00
2018-05-29T02:03:07.118Z,1009.03
2018-05-29T02:05:05.066Z,1008.98
2018-05-29T02:06:05.079Z,1009.01
2018-05-29T02:08:01.066Z,1008.91
2018-05-29T02:09:01.540Z,1008.94
2018-05-29T02:10:58.963Z,1008.96
2018-05-29T02:11:58.976Z,1008.91
2018-05-29T02:13:58.949Z,1008.90
2018-05-29T02:14:57.111Z,1008.89
2018-05-29T02:16:55.107Z,1008.89
2018-05-29T02:17:55.560Z,1008.88
2018-05-29T02:19:51.995Z,1008.84
2018-05-29T02:20:52.026Z,1008.84
2018-05-29T02:22:48.028Z,1008.81
2018-05-29T02:23:47.982Z,1008.82
2018-05-29T02:25:46.530Z,1008.85
2018-05-29T02:26:45.930Z,1008.82
2018-05-29T02:28:44.408Z,1008.77
2018-05-29T02:29:44.413Z,1008.79
2018-05-29T02:31:42.343Z,1008.84
2018-05-29T02:32:41.859Z,1008.80
2018-05-29T02:34:40.796Z,1008.74
2018-05-29T02:35:39.772Z,1008.76
2018-05-29T02:37:38.034Z,1008.76
2018-05-29T02:38:38.000Z,1008.75
2018-05-29T02:40:36.483Z,1008.74
2018-05-29T02:41:36.165Z,1008.75
2018-05-29T02:43:34.598Z,1008.78
2018-05-29T02:44:34.136Z,1008.75
2018-05-29T02:46:32.083Z,1008.73
2018-05-29T02:47:32.060Z,1008.74
2018-05-29T02:49:31.040Z,1008.69
2018-05-29T02:50:30.524Z,1008.67
2018-05-29T02:52:27.964Z,1008.65
2018-05-29T02:53:27.977Z,1008.65
2018-05-29T02:55:23.946Z,1008.68
2018-05-29T02:56:23.947Z,1008.64
2018-05-29T02:58:22.940Z,1008.63
2018-05-29T02:59:22.841Z,1008.64
2018-05-29T03:01:21.066Z,1008.61
2018-05-29T03:02:20.205Z,1008.62
2018-05-29T03:04:18.711Z,1008.61
2018-05-29T03:05:18.667Z,1008.61
2018-05-29T03:07:17.625Z,1008.56
2018-05-29T03:08:16.634Z,1008.57
2018-05-29T03:10:14.103Z,1008.55
2018-05-29T03:11:14.589Z,1008.52
2018-05-29T03:13:10.553Z,1008.53
2018-05-29T03:14:10.033Z,1008.52
2018-05-29T03:16:08.188Z,1008.56
2018-05-29T03:17:08.200Z,1008.53
2018-05-29T03:19:06.159Z,1008.58
2018-05-29T03:20:06.147Z,1008.56
2018-05-29T03:22:02.117Z,1008.58
2018-05-29T03:23:02.636Z,1008.65
2018-05-29T03:25:01.066Z,1008.63
2018-05-29T03:26:00.244Z,1008.60
2018-05-29T03:27:59.188Z,1008.60
2018-05-29T03:28:59.245Z,1008.60
2018-05-29T03:30:59.702Z,1008.58
2018-05-29T03:31:56.137Z,1008.59
2018-05-29T03:33:54.628Z,1008.58
2018-05-29T03:34:54.089Z,1008.58
2018-05-29T03:36:50.048Z,1008.60
2018-05-29T03:37:50.056Z,1008.66
2018-05-29T03:39:45.995Z,1008.63
2018-05-29T03:40:46.532Z,1008.60
2018-05-29T03:42:44.977Z,1008.72
2018-05-29T03:43:44.145Z,1008.72
2018-05-29T03:45:43.116Z,1008.74
2018-05-29T03:46:42.101Z,1008.75
2018-05-29T03:48:42.081Z,1008.81
2018-05-29T03:49:40.235Z,1008.84
2018-05-29T03:51:38.713Z,1008.82
2018-05-29T03:52:38.186Z,1008.80
2018-05-29T03:54:36.339Z,1008.83
2018-05-29T03:55:36.335Z,1008.82
2018-05-29T03:57:34.464Z,1008.86
2018-05-29T03:58:35.309Z,1008.84
2018-05-29T04:00:32.946Z,1008.80
2018-05-29T04:01:32.423Z,1008.82
2018-05-29T04:03:32.395Z,1008.83
2018-05-29T04:04:30.580Z,1008.85
2018-05-29T04:06:29.659Z,1008.85
2018-05-29T04:07:28.693Z,1008.85
2018-05-29T04:09:26.682Z,1008.98
2018-05-29T04:10:27.175Z,1009.01
2018-05-29T04:12:27.111Z,1009.06
2018-05-29T04:13:27.111Z,1009.10
2018-05-29T04:15:25.565Z,1009.03
2018-05-29T04:16:25.603Z,1008.98
2018-05-29T04:18:23.585Z,1008.95
2018-05-29T04:19:23.025Z,1008.94
2018-05-29T04:21:20.929Z,1008.97
2018-05-29T04:22:20.949Z,1008.95
2018-05-29T04:24:18.903Z,1009.07
2018-05-29T04:25:18.913Z,1009.09
2018-05-29T04:27:16.847Z,1009.10
2018-05-29T04:28:16.863Z,1009.10
2018-05-29T04:30:13.321Z,1009.05
2018-05-29T04:31:12.813Z,1009.07
2018-05-29T04:33:11.278Z,1009.09
2018-05-29T04:34:11.273Z,1009.11
2018-05-29T04:36:06.764Z,1009.19
2018-05-29T04:37:06.712Z,1009.16
2018-05-29T04:39:05.701Z,1009.19
2018-05-29T04:40:02.665Z,1009.21
2018-05-29T04:41:58.625Z,1009.22
2018-05-29T04:42:58.633Z,1009.20
2018-05-29T04:44:54.592Z,1009.19
2018-05-29T04:45:54.612Z,1009.18
2018-05-29T04:47:51.079Z,1009.24
2018-05-29T04:48:50.564Z,1009.24
2018-05-29T04:50:49.028Z,1009.28
2018-05-29T04:51:48.548Z,1009.30
2018-05-29T04:53:44.549Z,1009.31
2018-05-29T04:54:45.014Z,1009.33
2018-05-29T04:56:40.489Z,1009.27
2018-05-29T04:57:40.986Z,1009.28
2018-05-29T04:59:38.598Z,1009.28
2018-05-29T05:00:38.614Z,1009.24
2018-05-29T05:02:35.135Z,1009.21
2018-05-29T05:03:34.541Z,1009.21
2018-05-29T05:05:30.567Z,1009.08
2018-05-29T05:06:31.014Z,1009.05
2018-05-29T05:08:28.961Z,1009.04
2018-05-29T05:09:28.631Z,1009.04
2018-05-29T05:11:24.646Z,1009.09
2018-05-29T05:12:24.555Z,1009.10
2018-05-29T05:14:20.554Z,1009.08
2018-05-29T05:16:36.565Z,1008.97
2018-05-29T05:18:52.517Z,1008.95
2018-05-29T05:19:52.482Z,1008.98
2018-05-29T05:21:48.455Z,1008.91
2018-05-29T05:22:48.416Z,1008.95
2018-05-29T05:24:44.377Z,1008.97
2018-05-29T05:25:44.377Z,1008.93
2018-05-29T05:27:41.370Z,1008.91
2018-05-29T05:28:40.355Z,1008.93
2018-05-29T05:30:36.444Z,1008.93
2018-05-29T05:32:52.823Z,1008.95
2018-05-29T05:33:52.317Z,1008.93
2018-05-29T05:35:50.293Z,1008.93
2018-05-29T05:36:50.290Z,1008.99
2018-05-29T05:38:49.762Z,1008.95
2018-05-29T05:39:49.451Z,1008.97
2018-05-29T05:41:47.605Z,1008.94
2018-05-29T05:42:47.602Z,1008.91
2018-05-29T05:44:45.757Z,1008.88
2018-05-29T05:45:45.753Z,1008.87
2018-05-29T05:47:41.779Z,1008.85
2018-05-29T05:48:41.698Z,1008.85
2018-05-29T05:50:39.645Z,1008.85
2018-05-29T05:51:39.664Z,1008.85
2018-05-29T05:53:35.626Z,1008.85
2018-05-29T05:54:35.622Z,1008.84
2018-05-29T05:56:32.591Z,1008.82
2018-05-29T05:57:32.114Z,1008.84
2018-05-29T05:59:27.553Z,1008.84
2018-05-29T06:00:27.556Z,1008.85
2018-05-29T06:02:25.717Z,1008.81
2018-05-29T06:03:25.710Z,1008.87
2018-05-29T06:05:22.676Z,1008.84
2018-05-29T06:06:22.688Z,1008.82
2018-05-29T06:08:20.663Z,1008.84
2018-05-29T06:09:19.824Z,1008.87
2018-05-29T06:11:22.209Z,1008.84
2018-05-29T06:12:20.265Z,1008.83
2018-05-29T06:14:16.234Z,1008.85
2018-05-29T06:15:16.733Z,1008.85
2018-05-29T06:17:14.365Z,1008.83
2018-05-29T06:18:17.238Z,1008.84
2018-05-29T06:20:14.871Z,1008.79
2018-05-29T06:21:14.834Z,1008.81
2018-05-29T06:23:14.797Z,1008.82
2018-05-29T06:24:15.852Z,1008.85
2018-05-29T06:26:08.852Z,1008.87
2018-05-29T06:27:08.806Z,1008.86
2018-05-29T06:29:04.750Z,1008.85
2018-05-29T06:30:04.774Z,1008.85
2018-05-29T06:32:04.241Z,1008.86
2018-05-29T06:33:02.905Z,1008.86
2018-05-29T06:35:01.066Z,1008.88
2018-05-29T06:36:01.882Z,1008.88
2018-05-29T06:37:58.015Z,1008.92
2018-05-29T06:38:58.541Z,1008.91
2018-05-29T06:40:54.024Z,1008.91
2018-05-29T06:41:54.928Z,1008.90
2018-05-29T06:43:52.438Z,1008.89
2018-05-29T06:44:50.511Z,1008.88
2018-05-29T06:46:46.897Z,1008.87
2018-05-29T06:47:45.952Z,1008.89
2018-05-29T06:49:44.423Z,1008.90
2018-05-29T06:50:45.411Z,1008.86
2018-05-29T06:52:39.865Z,1008.89
2018-05-29T06:53:40.383Z,1008.90
2018-05-29T06:55:36.833Z,1008.88
2018-05-29T06:56:35.847Z,1008.91
2018-05-29T06:58:33.783Z,1008.92
2018-05-29T06:59:34.311Z,1008.92
2018-05-29T07:01:31.792Z,1008.88
2018-05-29T07:02:33.293Z,1008.92
2018-05-29T07:04:30.247Z,1008.88
2018-05-29T07:05:29.901Z,1008.92
2018-05-29T07:07:28.390Z,1008.92
2018-05-29T07:08:28.867Z,1008.85
2018-05-29T07:10:27.001Z,1008.84
2018-05-29T07:11:26.180Z,1008.78
2018-05-29T07:13:24.354Z,1008.77
2018-05-29T07:14:25.166Z,1008.79
2018-05-29T07:16:22.300Z,1008.79
2018-05-29T07:17:22.780Z,1008.79
2018-05-29T07:19:18.250Z,1008.84
2018-05-29T07:20:18.745Z,1008.82
2018-05-29T07:22:14.219Z,1008.85
2018-05-29T07:23:14.709Z,1008.89
2018-05-29T07:25:10.210Z,1008.85
2018-05-29T07:26:10.192Z,1008.85
2018-05-29T07:28:06.636Z,1008.87
2018-05-29T07:29:06.156Z,1008.87
2018-05-29T07:31:02.149Z,1008.83
2018-05-29T07:32:02.082Z,1008.80
2018-05-29T07:33:58.041Z,1008.75
2018-05-29T07:34:58.555Z,1008.79
2018-05-29T07:36:54.768Z,1008.74
2018-05-29T07:37:54.525Z,1008.78
2018-05-29T07:39:49.992Z,1008.73
2018-05-29T07:40:49.965Z,1008.74
2018-05-29T07:42:45.968Z,1008.67
2018-05-29T07:43:46.449Z,1008.69
2018-05-29T07:45:42.892Z,1008.68
2018-05-29T07:46:42.889Z,1008.63
2018-05-29T07:48:39.846Z,1008.62
2018-05-29T07:49:39.864Z,1008.60
2018-05-29T07:51:39.832Z,1008.55
2018-05-29T07:52:37.995Z,1008.60
2018-05-29T07:54:34.475Z,1008.55
2018-05-29T07:55:34.975Z,1008.50
2018-05-29T07:57:30.452Z,1008.51
2018-05-29T07:58:29.947Z,1008.51
2018-05-29T08:00:27.942Z,1008.49
2018-05-29T08:01:27.910Z,1008.47
2018-05-29T08:03:23.890Z,1008.50
2018-05-29T08:04:24.885Z,1008.49
2018-05-29T08:06:21.415Z,1008.48
2018-05-29T08:07:19.850Z,1008.44
2018-05-29T08:09:16.813Z,1008.44
2018-05-29T08:10:15.826Z,1008.45
2018-05-29T08:12:11.818Z,1008.46
2018-05-29T08:13:12.804Z,1008.42
2018-05-29T08:15:07.779Z,1008.45
2018-05-29T08:16:07.790Z,1008.43
2018-05-29T08:18:03.776Z,1008.38
2018-05-29T08:19:04.781Z,1008.38
2018-05-29T08:20:59.756Z,1008.35
2018-05-29T08:22:00.253Z,1008.36
2018-05-29T08:23:55.676Z,1008.32
2018-05-29T08:24:55.680Z,1008.26
2018-05-29T08:26:51.666Z,1008.34
2018-05-29T08:27:51.656Z,1008.31
2018-05-29T08:29:47.601Z,1008.25
2018-05-29T08:30:48.140Z,1008.22
2018-05-29T08:32:44.082Z,1008.21
2018-05-29T08:33:43.582Z,1008.23
2018-05-29T08:35:39.558Z,1008.17
2018-05-29T08:36:39.585Z,1008.18
2018-05-29T08:38:35.527Z,1008.18
2018-05-29T08:39:36.049Z,1008.15
2018-05-29T08:41:32.993Z,1008.13
2018-05-29T08:42:32.930Z,1008.13
2018-05-29T08:44:27.955Z,1008.14
2018-05-29T08:45:27.465Z,1008.09
2018-05-29T08:47:23.951Z,1008.16
2018-05-29T08:48:23.423Z,1008.15
2018-05-29T08:50:20.436Z,1008.11
2018-05-29T08:51:19.405Z,1008.13
2018-05-29T08:53:15.889Z,1008.06
2018-05-29T08:54:15.396Z,1008.06
2018-05-29T08:56:12.364Z,1008.03
2018-05-29T08:57:12.370Z,1008.03
2018-05-29T08:59:07.328Z,1008.04
2018-05-29T09:00:07.345Z,1008.06
2018-05-29T09:02:04.306Z,1008.04
2018-05-29T09:03:03.295Z,1008.04
2018-05-29T09:04:59.289Z,1007.99
2018-05-29T09:06:00.279Z,1007.99
2018-05-29T09:07:58.751Z,1007.99
2018-05-29T09:08:58.258Z,1007.95
2018-05-29T09:10:53.392Z,1007.96
2018-05-29T09:11:53.442Z,1007.90
2018-05-29T09:13:49.380Z,1007.84
2018-05-29T09:14:49.406Z,1007.83
2018-05-29T09:16:45.364Z,1007.83
2018-05-29T09:17:46.361Z,1007.83
2018-05-29T09:19:41.828Z,1007.83
2018-05-29T09:20:41.322Z,1007.84
2018-05-29T09:22:37.787Z,1007.83
2018-05-29T09:23:37.286Z,1007.85
2018-05-29T09:25:34.258Z,1007.84
2018-05-29T09:26:33.275Z,1007.82
2018-05-29T09:28:30.160Z,1007.81
2018-05-29T09:29:29.291Z,1007.81
2018-05-29T09:31:25.183Z,1007.78
2018-05-29T09:32:25.293Z,1007.79
2018-05-29T09:34:23.602Z,1007.80
2018-05-29T09:35:21.198Z,1007.81
2018-05-29T09:37:18.741Z,1007.77
2018-05-29T09:38:17.144Z,1007.80
2018-05-29T09:40:13.161Z,1007.72
2018-05-29T09:41:13.635Z,1007.74
2018-05-29T09:43:09.072Z,1007.73
2018-05-29T09:44:09.082Z,1007.69
2018-05-29T09:46:05.551Z,1007.66
2018-05-29T09:47:05.055Z,1007.63
2018-05-29T09:49:01.530Z,1007.65
2018-05-29T09:50:01.017Z,1007.63
2018-05-29T09:51:59.532Z,1007.63
2018-05-29T09:52:57.014Z,1007.65
2018-05-29T09:54:55.891Z,1007.68
2018-05-29T09:55:54.951Z,1007.65
2018-05-29T09:57:49.900Z,1007.68
2018-05-29T09:58:49.940Z,1007.73
2018-05-29T10:00:45.917Z,1007.70
2018-05-29T10:01:45.931Z,1007.66
2018-05-29T10:03:41.893Z,1007.71
2018-05-29T10:04:41.920Z,1007.67
2018-05-29T10:06:37.865Z,1007.73
2018-05-29T10:07:37.873Z,1007.72
2018-05-29T10:09:33.856Z,1007.69
2018-05-29T10:11:50.831Z,1007.67
2018-05-29T10:12:49.834Z,1007.70
2018-05-29T10:14:47.776Z,1007.67
2018-05-29T10:15:47.800Z,1007.69
2018-05-29T10:17:44.265Z,1007.73
2018-05-29T10:18:43.766Z,1007.67
2018-05-29T10:20:41.751Z,1007.70
2018-05-29T10:21:41.730Z,1007.67
2018-05-29T10:23:37.726Z,1007.67
2018-05-29T10:24:37.751Z,1007.64
2018-05-29T10:26:35.893Z,1007.68
2018-05-29T10:27:35.864Z,1007.67
2018-05-29T10:29:31.817Z,1007.65
2018-05-29T10:30:32.345Z,1007.66
2018-05-29T10:32:30.101Z,1007.61
2018-05-29T10:33:31.738Z,1007.65
2018-05-29T10:35:27.786Z,1007.63
2018-05-29T10:36:27.799Z,1007.59
2018-05-29T10:38:26.773Z,1007.55
2018-05-29T10:39:25.812Z,1007.59
2018-05-29T10:41:22.283Z,1007.57
2018-05-29T10:42:21.781Z,1007.60
2018-05-29T10:44:18.250Z,1007.57
2018-05-29T10:45:17.757Z,1007.55
2018-05-29T10:47:13.726Z,1007.53
2018-05-29T10:48:13.744Z,1007.51
2018-05-29T10:50:10.637Z,1007.54
2018-05-29T10:51:11.213Z,1007.54
2018-05-29T10:53:10.732Z,1007.51
2018-05-29T10:54:05.686Z,1007.50
2018-05-29T10:56:01.663Z,1007.52
2018-05-29T10:57:01.688Z,1007.52
2018-05-29T10:58:57.670Z,1007.46
2018-05-29T10:59:57.657Z,1007.47
2018-05-29T11:01:53.651Z,1007.47
2018-05-29T11:02:53.650Z,1007.45
2018-05-29T11:04:52.124Z,1007.46
2018-05-29T11:05:49.625Z,1007.46
2018-05-29T11:07:45.596Z,1007.45
2018-05-29T11:08:45.606Z,1007.41
2018-05-29T11:10:41.563Z,1007.40
2018-05-29T11:11:42.504Z,1007.37
2018-05-29T11:13:38.554Z,1007.38
2018-05-29T11:14:38.595Z,1007.39
2018-05-29T11:16:33.539Z,1007.37
2018-05-29T11:17:33.554Z,1007.36
2018-05-29T11:19:31.521Z,1007.34
2018-05-29T11:20:32.011Z,1007.30
2018-05-29T11:22:28.423Z,1007.26
2018-05-29T11:23:28.484Z,1007.23
2018-05-29T11:25:23.474Z,1007.27
2018-05-29T11:26:23.500Z,1007.20
2018-05-29T11:28:19.469Z,1007.20
2018-05-29T11:29:19.460Z,1007.15
2018-05-29T11:31:16.994Z,1007.09
2018-05-29T11:32:15.405Z,1007.14
2018-05-29T11:34:11.384Z,1007.10
2018-05-29T11:35:11.398Z,1007.09
2018-05-29T11:37:07.359Z,1007.07
2018-05-29T11:38:07.366Z,1007.03
2018-05-29T11:40:04.337Z,1007.02
2018-05-29T11:42:21.308Z,1006.98
2018-05-29T11:43:21.335Z,1006.90
2018-05-29T11:45:17.366Z,1006.91
2018-05-29T11:46:18.299Z,1006.86
2018-05-29T11:48:13.810Z,1006.82
2018-05-29T11:49:13.333Z,1006.74
2018-05-29T11:51:09.792Z,1006.73
2018-05-29T11:52:09.276Z,1006.67
2018-05-29T11:54:06.745Z,1006.68
2018-05-29T11:55:05.249Z,1006.64
2018-05-29T11:57:01.281Z,1006.62
2018-05-29T11:58:02.222Z,1006.59
2018-05-29T11:59:58.206Z,1006.55
2018-05-29T12:00:57.264Z,1006.52
2018-05-29T12:02:55.213Z,1006.48
2018-05-29T12:03:57.195Z,1006.47
2018-05-29T12:05:51.203Z,1006.49
2018-05-29T12:06:51.222Z,1006.45
2018-05-29T12:08:49.328Z,1006.45
2018-05-29T12:09:49.329Z,1006.42
2018-05-29T12:11:45.315Z,1006.38
2018-05-29T12:12:46.299Z,1006.39
2018-05-29T12:14:42.306Z,1006.31
2018-05-29T12:15:41.805Z,1006.32
2018-05-29T12:17:38.278Z,1006.28
2018-05-29T12:18:38.785Z,1006.37
2018-05-29T12:20:33.738Z,1006.31
2018-05-29T12:21:33.269Z,1006.35
2018-05-29T12:23:29.233Z,1006.35
2018-05-29T12:24:30.241Z,1006.39
2018-05-29T12:26:26.731Z,1006.44
2018-05-29T12:28:41.186Z,1006.48
2018-05-29T12:29:42.255Z,1006.50
2018-05-29T12:33:13.053Z,1006.60
2018-05-29T12:34:13.026Z,1006.55
2018-05-29T12:36:10.487Z,1006.60
2018-05-29T12:37:10.020Z,1006.64
2018-05-29T12:39:07.914Z,1006.69
2018-05-29T12:40:05.018Z,1006.71
2018-05-29T12:42:04.004Z,1006.75
2018-05-29T12:43:04.015Z,1006.72
2018-05-29T12:44:59.177Z,1006.66
2018-05-29T12:46:00.186Z,1006.63
2018-05-29T12:47:55.162Z,1006.59
2018-05-29T12:48:56.132Z,1006.54
2018-05-29T12:50:53.573Z,1006.51
2018-05-29T12:53:07.131Z,1006.45
2018-05-29T12:55:23.588Z,1006.40
2018-05-29T12:56:23.094Z,1006.43
2018-05-29T12:58:19.067Z,1006.42
2018-05-29T13:00:42.035Z,1006.38
2018-05-29T13:01:39.556Z,1006.35
2018-05-29T13:03:37.014Z,1006.35
2018-05-29T13:04:36.528Z,1006.36
2018-05-29T13:06:43.987Z,1006.37
2018-05-29T13:09:01.973Z,1006.29
2018-05-29T13:10:01.985Z,1006.25
2018-05-29T13:11:58.467Z,1006.22
2018-05-29T13:12:58.491Z,1006.19
2018-05-29T13:14:54.433Z,1006.12
2018-05-29T13:15:55.929Z,1006.10
2018-05-29T13:18:09.933Z,1006.11
2018-05-29T13:19:09.144Z,1006.16
2018-05-29T13:21:06.114Z,1006.17
2018-05-29T13:22:05.070Z,1006.20
2018-05-29T13:24:04.130Z,1006.31
2018-05-29T13:25:03.234Z,1006.33
2018-05-29T13:27:01.769Z,1006.26
2018-05-29T13:28:01.387Z,1006.22
2018-05-29T13:29:57.366Z,1006.09
2018-05-29T13:30:58.347Z,1006.00
2018-05-29T13:32:55.310Z,1005.85
2018-05-29T13:33:55.429Z,1005.79
2018-05-29T13:35:51.800Z,1005.77
2018-05-29T13:36:51.338Z,1005.82
2018-05-29T13:40:23.121Z,1006.12
2018-05-29T13:41:23.620Z,1006.23
2018-05-29T13:43:20.132Z,1006.32
2018-05-29T13:45:38.595Z,1006.39
2018-05-29T13:46:43.048Z,1006.44
2018-05-29T13:48:36.714Z,1006.46
2018-05-29T13:49:36.222Z,1006.44
2018-05-29T13:51:35.188Z,1006.63
2018-05-29T13:52:34.189Z,1006.69
2018-05-29T13:54:31.676Z,1006.82
2018-05-29T13:55:31.161Z,1007.08
2018-05-29T13:57:27.143Z,1007.23
2018-05-29T13:58:28.165Z,1007.33
2018-05-29T14:00:23.106Z,1007.34
2018-05-29T14:01:23.134Z,1007.39
2018-05-29T14:03:21.102Z,1007.48
2018-05-29T14:04:21.091Z,1007.48
2018-05-29T14:06:19.115Z,1007.38
2018-05-29T14:07:19.051Z,1007.44
2018-05-29T14:09:17.041Z,1007.40
2018-05-29T14:10:17.023Z,1007.34
2018-05-29T14:12:16.012Z,1007.41
2018-05-29T14:13:15.025Z,1007.45
2018-05-29T14:15:14.469Z,1007.55
2018-05-29T14:16:15.986Z,1007.60
2018-05-29T14:18:10.169Z,1007.64
2018-05-29T14:19:10.149Z,1007.72
2018-05-29T14:21:02.604Z,1007.67
2018-05-29T14:22:02.594Z,1007.61
2018-05-29T14:23:58.585Z,1007.53
2018-05-29T14:24:58.579Z,1007.60
2018-05-29T14:26:53.033Z,1007.64
2018-05-29T14:27:53.546Z,1007.61
2018-05-29T14:29:49.031Z,1007.64
2018-05-29T14:30:49.016Z,1007.69
2018-05-29T14:32:45.044Z,1007.57
2018-05-29T14:33:45.999Z,1007.55
2018-05-29T14:35:40.556Z,1007.54
2018-05-29T14:36:39.542Z,1007.46
2018-05-29T14:38:35.452Z,1007.36
2018-05-29T14:39:35.461Z,1007.34
2018-05-29T14:41:31.935Z,1007.36
2018-05-29T14:42:31.405Z,1007.30
2018-05-29T14:44:27.904Z,1007.33
2018-05-29T14:45:27.390Z,1007.42
2018-05-29T14:47:23.319Z,1007.35
2018-05-29T14:48:23.344Z,1007.38
2018-05-29T14:50:20.370Z,1007.38
2018-05-29T14:51:19.381Z,1007.37
2018-05-29T14:53:15.350Z,1007.38
2018-05-29T14:54:15.292Z,1007.39
2018-05-29T14:56:14.297Z,1007.44
2018-05-29T14:57:16.265Z,1007.51
2018-05-29T14:59:11.724Z,1007.45
2018-05-29T15:00:10.242Z,1007.37
2018-05-29T15:02:10.691Z,1007.44
2018-05-29T15:03:10.678Z,1007.38
2018-05-29T15:05:06.669Z,1007.36
2018-05-29T15:06:06.677Z,1007.36
2018-05-29T15:08:02.609Z,1007.37
2018-05-29T15:09:02.672Z,1007.32
2018-05-29T15:10:58.534Z,1007.24
2018-05-29T15:11:58.536Z,1007.26
2018-05-29T15:13:53.034Z,1007.23
2018-05-29T15:14:53.004Z,1007.25
2018-05-29T15:16:48.990Z,1007.25
2018-05-29T15:17:49.466Z,1007.24
2018-05-29T15:19:44.923Z,1007.22
2018-05-29T15:20:45.470Z,1007.22
2018-05-29T15:22:41.168Z,1007.22
2018-05-29T15:23:41.093Z,1007.25
2018-05-29T15:25:37.149Z,1007.27
2018-05-29T15:26:37.060Z,1007.27
2018-05-29T15:28:31.620Z,1007.31
2018-05-29T15:29:31.598Z,1007.30
2018-05-29T15:31:27.543Z,1007.33
2018-05-29T15:32:28.047Z,1007.40
2018-05-29T15:34:21.801Z,1007.50
2018-05-29T15:35:21.850Z,1007.52
2018-05-29T15:37:17.783Z,1007.64
2018-05-29T15:38:17.778Z,1007.68
2018-05-29T15:40:14.240Z,1007.76
2018-05-29T15:41:14.745Z,1007.79
2018-05-29T15:43:09.718Z,1007.79
2018-05-29T15:44:10.213Z,1007.84
2018-05-29T15:46:05.688Z,1007.85
2018-05-29T15:47:05.717Z,1007.87
2018-05-29T15:49:01.692Z,1007.86
2018-05-29T15:50:01.660Z,1007.84
2018-05-29T15:51:57.627Z,1007.97
2018-05-29T15:52:58.123Z,1008.02
2018-05-29T15:54:53.553Z,1008.09
2018-05-29T15:55:54.092Z,1008.10
2018-05-29T15:57:59.033Z,1008.19
2018-05-29T15:59:00.031Z,1008.22
2018-05-29T16:00:55.009Z,1008.17
2018-05-29T16:01:56.505Z,1008.23
2018-05-29T16:03:50.953Z,1008.20
2018-05-29T16:04:52.419Z,1008.16
2018-05-29T16:06:45.876Z,1008.12
2018-05-29T16:07:45.884Z,1008.05
2018-05-29T16:09:41.349Z,1007.95
2018-05-29T16:10:41.893Z,1007.91
2018-05-29T16:12:37.831Z,1007.82
2018-05-29T16:13:37.817Z,1007.79
2018-05-29T16:15:35.260Z,1007.72
2018-05-29T16:16:33.771Z,1007.73
2018-05-29T16:18:29.261Z,1007.77
2018-05-29T16:19:29.235Z,1007.80
2018-05-29T16:21:25.157Z,1007.84
2018-05-29T16:22:25.711Z,1007.86
2018-05-29T16:24:21.640Z,1007.92
2018-05-29T16:25:21.125Z,1007.87
2018-05-29T16:27:18.095Z,1007.89
2018-05-29T16:28:17.600Z,1007.93
2018-05-29T16:30:13.563Z,1007.92
2018-05-29T16:31:13.067Z,1007.95
2018-05-29T16:33:09.514Z,1008.10
2018-05-29T16:34:09.037Z,1008.13
2018-05-29T16:36:05.994Z,1008.17
2018-05-29T16:37:05.998Z,1008.19
2018-05-29T16:38:59.468Z,1008.25
2018-05-29T16:39:59.465Z,1008.23
2018-05-29T16:41:53.940Z,1008.24
2018-05-29T16:42:54.419Z,1008.20
2018-05-29T16:44:49.875Z,1008.15
2018-05-29T16:45:49.877Z,1008.11
2018-05-29T16:47:46.356Z,1008.02
2018-05-29T16:48:45.832Z,1007.95
2018-05-29T16:50:40.830Z,1007.90
2018-05-29T16:51:40.294Z,1007.83
2018-05-29T16:53:36.286Z,1007.77
2018-05-29T16:54:36.774Z,1007.70
2018-05-29T16:56:32.269Z,1007.60
2018-05-29T16:57:32.226Z,1007.55
2018-05-29T16:59:27.210Z,1007.43
2018-05-29T17:00:27.632Z,1007.39
2018-05-29T17:02:21.671Z,1007.32
2018-05-29T17:03:21.657Z,1007.33
2018-05-29T17:05:17.134Z,1007.20
2018-05-29T17:06:17.099Z,1007.09
2018-05-29T17:08:13.573Z,1006.96
2018-05-29T17:09:13.066Z,1006.91
2018-05-29T17:11:09.074Z,1006.76
2018-05-29T17:12:09.000Z,1006.68
2018-05-29T17:14:05.074Z,1006.57
2018-05-29T17:15:05.114Z,1006.56
2018-05-29T17:17:01.041Z,1006.56
2018-05-29T17:18:01.007Z,1006.59
2018-05-29T17:19:56.989Z,1006.61
2018-05-29T17:20:55.467Z,1006.59
2018-05-29T17:22:49.949Z,1006.64
2018-05-29T17:23:49.955Z,1006.66
2018-05-29T17:25:45.913Z,1006.73
2018-05-29T17:26:46.821Z,1006.72
2018-05-29T17:28:41.846Z,1006.75
2018-05-29T17:29:43.362Z,1006.78
2018-05-29T17:31:38.334Z,1006.81
2018-05-29T17:32:37.812Z,1006.86
2018-05-29T17:34:34.700Z,1006.84
2018-05-29T17:35:33.749Z,1006.85
2018-05-29T17:37:29.753Z,1006.84
2018-05-29T17:38:29.734Z,1006.85
2018-05-29T17:40:25.187Z,1006.88
2018-05-29T17:41:24.695Z,1006.94
2018-05-29T17:43:20.168Z,1007.00
2018-05-29T17:44:20.176Z,1007.02
2018-05-29T17:46:17.139Z,1007.02
2018-05-29T17:47:16.144Z,1007.02
2018-05-29T17:49:12.615Z,1007.02
2018-05-29T17:50:12.095Z,1007.02
2018-05-29T17:52:06.477Z,1006.96
2018-05-29T17:53:05.568Z,1007.01
2018-05-29T17:55:02.542Z,1006.99
2018-05-29T17:56:02.517Z,1006.97
2018-05-29T17:57:58.476Z,1007.01
2018-05-29T17:58:58.452Z,1007.04
2018-05-29T18:00:54.409Z,1007.01